Time;durP1;ratioP1;P1;durP2;ratioP2;P2;SDS_P1;SDS_P2;PMS_P1;PMS_P2;Temp;Humidity;BMP_temperature;BMP_pressure;BME280_temperature;BME280_humidity;BME280_pressure;Samples;Min_cycle;Max_cycle;Signal;HPM_P1;HPM_P2
2022/07/29 00:05:29;;;;;;;4.35;1.67;;;25.30;84.80;;;;;;1915240;74;21097;-72
2022/07/29 00:08:20;;;;;;;3.20;1.40;;;25.30;85.10;;;;;;1902317;74;21510;-72
2022/07/29 00:11:11;;;;;;;3.30;1.50;;;25.20;85.30;;;;;;1879544;75;21138;-73
2022/07/29 00:16:45;;;;;;;3.58;1.52;;;25.30;85.70;;;;;;1936469;72;22633;-72
2022/07/29 00:19:43;;;;;;;4.00;1.65;;;25.30;86.10;;;;;;1889439;75;21063;-72
2022/07/29 00:22:37;;;;;;;1.50;1.40;;;25.20;86.10;;;;;;1901398;75;21165;-72
2022/07/29 00:25:28;;;;;;;1.90;1.40;;;25.30;86.10;;;;;;1893107;75;21098;-72
2022/07/29 00:28:22;;;;;;;4.78;1.40;;;25.30;86.00;;;;;;1899899;75;21110;-72
2022/07/29 00:31:13;;;;;;;3.90;1.67;;;25.30;86.10;;;;;;1900364;75;21151;-72
2022/07/29 00:34:06;;;;;;;2.47;1.50;;;25.30;86.60;;;;;;1895135;75;21102;-72
2022/07/29 00:36:57;;;;;;;3.17;1.70;;;25.30;86.80;;;;;;1899833;75;21085;-72
2022/07/29 00:39:49;;;;;;;2.17;1.62;;;25.20;87.20;;;;;;1896870;75;21117;-72
2022/07/29 00:42:48;;;;;;;4.10;1.60;;;25.20;87.60;;;;;;1910087;75;21116;-71
2022/07/29 00:45:39;;;;;;;5.47;2.17;;;25.10;87.80;;;;;;1912574;75;21152;-71
2022/07/29 00:48:30;;;;;;;3.33;1.85;;;25.10;88.60;;;;;;1897013;75;21123;-71
2022/07/29 00:51:21;;;;;;;3.10;2.00;;;25.00;89.30;;;;;;1909601;75;21124;-71
2022/07/29 00:54:14;;;;;;;3.05;1.80;;;24.70;90.30;;;;;;1885707;75;21174;-71
2022/07/29 00:57:08;;;;;;;3.58;1.87;;;24.60;90.50;;;;;;1895049;75;21554;-71
2022/07/29 00:59:59;;;;;;;2.90;1.70;;;24.50;90.70;;;;;;1898003;74;21174;-71
2022/07/29 01:02:50;;;;;;;4.33;1.70;;;24.60;90.60;;;;;;1895251;75;21063;-71
2022/07/29 01:05:48;;;;;;;2.87;1.40;;;24.70;90.40;;;;;;1885699;75;21114;-72
2022/07/29 01:11:23;;;;;;;3.35;1.87;;;24.80;90.10;;;;;;1930649;72;22233;-71
2022/07/29 01:14:14;;;;;;;4.03;1.62;;;24.70;90.90;;;;;;1907278;75;21381;-71
2022/07/29 01:17:09;;;;;;;3.10;1.85;;;24.60;91.00;;;;;;1902385;75;21059;-71
2022/07/29 01:20:05;;;;;;;2.58;1.70;;;24.60;91.10;;;;;;1894117;75;21074;-71
2022/07/29 01:29:28;;;;;;;3.27;1.87;;;24.60;91.30;;;;;;1940965;72;22275;-73
2022/07/29 01:32:24;;;;;;;2.58;1.92;;;24.60;91.50;;;;;;1887878;75;21554;-73
2022/07/29 01:35:20;;;;;;;3.02;2.00;;;24.50;91.70;;;;;;1894280;75;21549;-72
2022/07/29 01:38:15;;;;;;;3.05;1.80;;;24.50;92.00;;;;;;1884859;75;21597;-72
2022/07/29 01:41:09;;;;;;;2.85;1.80;;;24.50;92.20;;;;;;1911795;75;21146;-73
2022/07/29 01:44:13;;;;;;;2.37;1.90;;;24.50;92.50;;;;;;1896146;75;21031;-72
2022/07/29 01:47:08;;;;;;;3.25;1.70;;;24.40;92.70;;;;;;1911153;75;21042;-72
2022/07/29 01:52:42;;;;;;;3.20;1.52;;;24.10;93.50;;;;;;1940628;72;22237;-72
2022/07/29 01:55:38;;;;;;;4.70;1.73;;;24.10;93.50;;;;;;1922098;74;21062;-72
2022/07/29 01:58:32;;;;;;;3.72;2.10;;;24.10;93.80;;;;;;1915747;74;21168;-74
2022/07/29 02:01:27;;;;;;;3.08;1.70;;;24.00;94.10;;;;;;1917103;74;21102;-73
2022/07/29 02:07:00;;;;;;;2.12;1.65;;;24.10;94.10;;;;;;1938026;72;22682;-73
2022/07/29 02:09:52;;;;;;;2.83;1.67;;;24.10;94.00;;;;;;1898975;75;21143;-73
2022/07/29 02:12:46;;;;;;;2.22;1.50;;;24.10;94.10;;;;;;1892136;75;21135;-73
2022/07/29 02:15:40;;;;;;;6.10;1.62;;;24.20;94.30;;;;;;1899300;75;21150;-73
2022/07/29 02:21:11;;;;;;;4.37;1.70;;;24.10;94.40;;;;;;1932412;72;22225;-72
2022/07/29 02:24:12;;;;;;;3.22;1.67;;;24.10;94.60;;;;;;1884830;75;21691;-73
2022/07/29 02:27:05;;;;;;;2.87;1.87;;;23.90;94.70;;;;;;1886851;75;21050;-73
2022/07/29 02:32:38;;;;;;;2.05;1.60;;;23.80;95.30;;;;;;1950824;72;22287;-73
2022/07/29 02:35:30;;;;;;;4.40;1.70;;;23.80;95.10;;;;;;1917624;75;21141;-73
2022/07/29 02:41:40;;;;;;;2.75;1.82;;;23.70;95.20;;;;;;1916806;73;21665;-73
2022/07/29 02:44:32;;;;;;;4.17;1.85;;;23.70;95.90;;;;;;1928059;73;21059;-73
2022/07/29 02:47:27;;;;;;;3.33;1.77;;;23.50;96.20;;;;;;1922943;73;21047;-73
2022/07/29 02:50:22;;;;;;;3.20;1.70;;;23.50;96.70;;;;;;1945623;73;21146;-73
2022/07/29 02:53:17;;;;;;;4.62;2.00;;;23.40;97.00;;;;;;1917634;75;21086;-73
2022/07/29 02:56:12;;;;;;;3.35;1.95;;;23.30;97.50;;;;;;1931407;73;21066;-73
2022/07/29 03:01:44;;;;;;;2.10;1.45;;;23.30;97.30;;;;;;1951714;72;22572;-73
2022/07/29 03:07:16;;;;;;;4.03;1.67;;;23.20;98.00;;;;;;1953867;72;22307;-73
2022/07/29 03:10:09;;;;;;;1.65;1.47;;;23.20;98.00;;;;;;1921856;73;21116;-72
2022/07/29 03:13:03;;;;;;;5.92;1.62;;;23.20;98.40;;;;;;1915525;74;21572;-72
2022/07/29 03:15:54;;;;;;;1.98;1.40;;;23.20;98.40;;;;;;1918069;74;21610;-72
2022/07/29 03:21:24;;;;;;;2.85;1.82;;;23.20;98.70;;;;;;1950078;72;22172;-72
2022/07/29 03:24:35;;;;;;;5.70;1.35;;;23.10;98.70;;;;;;1919010;74;21172;-72
2022/07/29 03:27:27;;;;;;;1.98;1.25;;;23.10;99.00;;;;;;1900982;74;21066;-73
2022/07/29 03:30:19;;;;;;;3.40;1.50;;;23.10;99.00;;;;;;1892069;75;21584;-71
2022/07/29 03:33:12;;;;;;;3.83;1.47;;;23.00;99.20;;;;;;1917787;74;21084;-73
2022/07/29 03:36:04;;;;;;;3.85;1.42;;;23.00;99.20;;;;;;1906950;74;21047;-73
2022/07/29 03:38:55;;;;;;;3.00;1.77;;;23.00;99.30;;;;;;1881933;75;21474;-73
2022/07/29 03:41:50;;;;;;;3.83;1.45;;;23.00;99.70;;;;;;1898499;75;21055;-71
2022/07/29 03:44:45;;;;;;;2.22;1.40;;;22.90;99.90;;;;;;1884702;75;21083;-71
2022/07/29 03:47:39;;;;;;;2.75;1.82;;;22.80;99.90;;;;;;1895484;75;21122;-71
2022/07/29 03:50:34;;;;;;;4.40;1.70;;;22.80;99.90;;;;;;1914076;74;21103;-71
2022/07/29 03:53:25;;;;;;;3.25;1.40;;;22.80;99.90;;;;;;1886580;75;21121;-72
2022/07/29 03:56:19;;;;;;;3.00;1.52;;;22.80;99.90;;;;;;1884384;75;21106;-71
2022/07/29 03:59:11;;;;;;;3.35;1.62;;;22.80;99.90;;;;;;1884691;75;21098;-71
2022/07/29 04:02:05;;;;;;;3.10;1.90;;;22.80;99.90;;;;;;1905929;75;21048;-71
2022/07/29 04:04:57;;;;;;;4.03;1.82;;;22.60;99.90;;;;;;1904966;75;21106;-71
2022/07/29 04:07:49;;;;;;;1.90;1.55;;;22.70;99.90;;;;;;1906507;74;21584;-71
2022/07/29 04:10:40;;;;;;;5.00;1.60;;;22.70;99.90;;;;;;1881987;75;21047;-71
2022/07/29 04:16:12;;;;;;;2.30;1.67;;;22.70;99.90;;;;;;1975676;72;22176;-70
2022/07/29 04:21:43;;;;;;;4.62;1.62;;;22.90;99.90;;;;;;1941294;72;22274;-80
2022/07/29 04:24:35;;;;;;;3.10;1.90;;;23.00;99.90;;;;;;1900232;75;21117;-87
2022/07/29 04:27:26;;;;;;;4.25;1.72;;;23.00;99.90;;;;;;1884414;75;21635;-85
2022/07/29 04:30:18;;;;;;;4.58;2.00;;;22.90;99.90;;;;;;1909206;75;21149;-79
2022/07/29 04:33:09;;;;;;;3.12;1.80;;;22.90;99.90;;;;;;1912435;75;21063;-76
2022/07/29 04:36:00;;;;;;;5.50;1.90;;;22.90;99.90;;;;;;1885432;75;21192;-81
2022/07/29 04:41:31;;;;;;;4.75;2.00;;;23.10;99.90;;;;;;1944087;72;22161;-81
2022/07/29 04:44:24;;;;;;;10.88;4.50;;;23.20;99.90;;;;;;1897473;75;21168;-82
2022/07/29 04:47:17;;;;;;;3.65;1.70;;;23.20;99.90;;;;;;1909788;75;21117;-75
2022/07/29 04:50:10;;;;;;;2.50;1.90;;;23.10;99.90;;;;;;1897707;75;21226;-75
2022/07/29 04:53:03;;;;;;;5.87;1.55;;;23.00;99.90;;;;;;1845815;77;21105;-84
2022/07/29 04:55:54;;;;;;;3.90;1.80;;;23.00;99.90;;;;;;1895481;75;21051;-84
2022/07/29 04:58:45;;;;;;;2.55;1.50;;;23.00;99.90;;;;;;1895554;75;21156;-75
2022/07/29 05:01:36;;;;;;;3.25;1.55;;;23.00;99.90;;;;;;1898818;74;21101;-76
2022/07/29 05:04:27;;;;;;;2.85;1.67;;;23.10;99.90;;;;;;1888599;75;21164;-77
2022/07/29 05:07:18;;;;;;;5.42;1.70;;;23.10;99.90;;;;;;1879954;75;21074;-79
2022/07/29 05:10:11;;;;;;;3.12;1.45;;;23.20;99.90;;;;;;1906286;75;21098;-80
2022/07/29 05:13:02;;;;;;;2.12;1.40;;;23.30;99.90;;;;;;1905367;75;21058;-81
2022/07/29 05:15:55;;;;;;;2.52;1.27;;;23.30;99.90;;;;;;1902826;75;21637;-78
2022/07/29 05:18:46;;;;;;;3.55;1.42;;;23.40;99.90;;;;;;1899100;75;21530;-83
2022/07/29 05:21:38;;;;;;;3.42;1.57;;;23.40;99.90;;;;;;1913126;75;21082;-80
2022/07/29 05:24:33;;;;;;;2.90;1.55;;;23.40;99.90;;;;;;1895067;75;21058;-87
2022/07/29 05:27:24;;;;;;;3.22;1.52;;;23.40;99.90;;;;;;1884676;75;21569;-89
2022/07/29 05:30:18;;;;;;;3.70;1.65;;;23.30;99.90;;;;;;1907374;75;21101;-82
2022/07/29 05:33:09;;;;;;;5.47;1.62;;;23.30;99.90;;;;;;1906265;75;21184;-87
2022/07/29 05:36:02;;;;;;;3.52;1.72;;;23.40;99.90;;;;;;1884062;75;21319;-89
2022/07/29 05:38:54;;;;;;;3.77;1.60;;;23.40;99.90;;;;;;1899910;75;21171;-85
2022/07/29 05:41:45;;;;;;;3.95;1.50;;;23.40;99.90;;;;;;1880637;75;21080;-76
2022/07/29 05:44:39;;;;;;;6.83;1.57;;;23.40;99.90;;;;;;1892427;75;21105;-81
2022/07/29 05:47:31;;;;;;;5.35;1.57;;;23.30;99.90;;;;;;1878292;75;21067;-85
2022/07/29 05:50:23;;;;;;;8.33;1.65;;;23.20;99.90;;;;;;1894844;75;21101;-89
2022/07/29 05:53:14;;;;;;;4.58;1.95;;;23.30;99.90;;;;;;1900940;75;21111;-82
2022/07/29 05:58:46;;;;;;;2.47;1.50;;;23.50;99.90;;;;;;1949730;72;22134;-81
2022/07/29 06:01:39;;;;;;;5.15;1.72;;;23.50;99.90;;;;;;1901128;75;21128;-75
2022/07/29 06:04:30;;;;;;;3.30;1.32;;;23.60;99.90;;;;;;1900993;75;21134;-82
2022/07/29 06:07:21;;;;;;;3.02;1.52;;;23.70;99.90;;;;;;1906177;75;21201;-83
2022/07/29 06:10:13;;;;;;;6.00;1.90;;;23.70;99.90;;;;;;1894419;75;21196;-87
2022/07/29 06:13:05;;;;;;;3.67;1.42;;;23.60;99.90;;;;;;1913406;75;21133;-85
2022/07/29 06:15:56;;;;;;;3.17;1.90;;;23.60;99.90;;;;;;1909520;75;21047;-84
2022/07/29 06:21:30;;;;;;;4.05;1.90;;;23.80;99.90;;;;;;1930952;72;22244;-86
2022/07/29 06:24:27;;;;;;;8.45;2.30;;;23.80;99.90;;;;;;1899899;75;21055;-84
2022/07/29 06:27:19;;;;;;;3.10;1.90;;;23.90;99.90;;;;;;1906684;75;21502;-83
2022/07/29 06:30:12;;;;;;;7.92;2.30;;;24.00;99.90;;;;;;1905361;75;21150;-83
2022/07/29 06:33:03;;;;;;;5.12;2.15;;;24.10;99.90;;;;;;1897822;75;21087;-83
2022/07/29 06:35:55;;;;;;;7.87;2.22;;;24.40;99.90;;;;;;1890427;75;21118;-83
2022/07/29 06:41:29;;;;;;;5.55;2.17;;;24.90;99.90;;;;;;1947726;72;22121;-85
2022/07/29 06:44:21;;;;;;;3.55;1.95;;;25.00;99.90;;;;;;1930571;73;21087;-80
2022/07/29 06:47:12;;;;;;;6.50;2.37;;;25.10;99.90;;;;;;1922822;73;21043;-81
2022/07/29 06:50:05;;;;;;;8.10;2.50;;;25.20;99.90;;;;;;1922111;73;21200;-79
2022/07/29 06:52:57;;;;;;;6.42;2.20;;;25.30;99.90;;;;;;1923948;73;21096;-79
2022/07/29 06:58:29;;;;;;;6.45;2.22;;;25.40;99.90;;;;;;1938497;72;22252;-79
2022/07/29 07:04:03;;;;;;;4.05;3.25;;;25.50;99.90;;;;;;1945205;72;22280;-79
2022/07/29 07:06:55;;;;;;;7.47;2.30;;;25.50;99.90;;;;;;1961120;72;21166;-79
2022/07/29 07:12:25;;;;;;;4.53;2.27;;;25.40;99.90;;;;;;1946704;72;22256;-79
2022/07/29 07:15:25;;;;;;;3.95;2.05;;;25.30;99.90;;;;;;1894238;75;21097;-78
2022/07/29 07:18:18;;;;;;;31.30;22.77;;;25.30;99.90;;;;;;1906833;75;21114;-77
2022/07/29 07:21:09;;;;;;;6.90;3.15;;;25.50;99.90;;;;;;1884501;75;21054;-80
2022/07/29 07:26:41;;;;;;;7.05;2.27;;;25.80;99.90;;;;;;1926299;72;22333;-80
2022/07/29 07:29:34;;;;;;;3.30;2.25;;;25.80;99.90;;;;;;1912350;74;21620;-79
2022/07/29 07:32:24;;;;;;;4.17;2.35;;;25.80;99.90;;;;;;1914072;74;21542;-79
2022/07/29 07:35:16;;;;;;;7.75;2.45;;;25.80;99.90;;;;;;1919629;74;21139;-76
2022/07/29 07:38:07;;;;;;;7.25;2.37;;;25.80;99.90;;;;;;1914396;75;21118;-81
2022/07/29 07:40:58;;;;;;;8.93;3.05;;;25.80;99.90;;;;;;1922352;74;21112;-90
2022/07/29 07:46:31;;;;;;;7.67;3.20;;;25.90;99.90;;;;;;1941723;72;22118;-88
2022/07/29 07:49:23;;;;;;;4.20;2.50;;;25.90;99.90;;;;;;1907298;75;21063;-88
2022/07/29 07:52:15;;;;;;;3.95;2.50;;;26.00;99.90;;;;;;1902798;73;21156;-85
2022/07/29 07:55:08;;;;;;;4.97;2.30;;;26.00;99.90;;;;;;1885253;75;21099;-80
2022/07/29 07:57:59;;;;;;;6.72;2.52;;;26.00;99.90;;;;;;1892151;75;21082;-76
2022/07/29 08:00:58;;;;;;;5.12;2.42;;;26.10;99.90;;;;;;1898502;75;21076;-87
2022/07/29 08:06:38;;;;;;;5.20;2.65;;;26.00;99.90;;;;;;1953866;72;22241;-82
2022/07/29 08:12:10;;;;;;;6.45;2.83;;;26.10;99.90;;;;;;1951906;72;22193;-84
2022/07/29 08:15:02;;;;;;;8.80;2.70;;;26.10;99.90;;;;;;1916647;75;21122;-89
2022/07/29 08:17:55;;;;;;;8.00;2.85;;;26.30;99.90;;;;;;1916116;74;21110;-90
2022/07/29 08:20:54;;;;;;;6.15;3.22;;;26.30;99.90;;;;;;1897145;73;21097;-84
2022/07/29 08:26:26;;;;;;;10.68;2.90;;;26.40;99.90;;;;;;1933634;72;22173;-82
2022/07/29 08:29:17;;;;;;;5.70;2.62;;;26.40;99.90;;;;;;1888059;73;21476;-84
2022/07/29 08:32:10;;;;;;;5.10;2.62;;;26.30;99.90;;;;;;1874600;73;21106;-84
2022/07/29 08:35:01;;;;;;;5.67;2.37;;;26.20;99.90;;;;;;1878540;75;21075;-84
2022/07/29 08:37:53;;;;;;;3.85;1.80;;;26.10;99.90;;;;;;1874756;75;21580;-84
2022/07/29 08:41:02;;;;;;;5.37;2.27;;;26.00;99.90;;;;;;1896104;75;21095;-85
2022/07/29 08:43:54;;;;;;;2.98;2.30;;;25.70;99.90;;;;;;1891819;73;21144;-84
2022/07/29 08:46:46;;;;;;;8.38;3.77;;;25.50;99.90;;;;;;1855234;77;21144;-83
2022/07/29 08:49:38;;;;;;;4.08;2.87;;;25.30;99.90;;;;;;1892460;75;21189;-84
2022/07/29 08:52:32;;;;;;;3.10;2.50;;;25.30;99.90;;;;;;1901245;75;21169;-88
2022/07/29 08:55:23;;;;;;;5.42;2.90;;;25.20;99.90;;;;;;1892483;73;21086;-84
2022/07/29 08:58:16;;;;;;;5.83;2.90;;;25.10;99.90;;;;;;1894091;74;21198;-90
2022/07/29 09:01:09;;;;;;;5.78;3.10;;;25.10;99.90;;;;;;1914475;73;21063;-82
2022/07/29 09:04:13;;;;;;;10.13;3.65;;;24.80;99.90;;;;;;1883844;75;21140;-75
2022/07/29 09:07:06;;;;;;;9.05;4.47;;;24.40;99.90;;;;;;1883668;75;21106;-84
2022/07/29 09:09:57;;;;;;;7.55;4.12;;;24.20;99.90;;;;;;1847866;77;21134;-75
2022/07/29 09:12:49;;;;;;;6.42;3.25;;;24.00;99.90;;;;;;1910721;73;21893;-75
2022/07/29 09:15:40;;;;;;;8.20;3.58;;;23.80;99.90;;;;;;1880589;74;21113;-73
2022/07/29 09:18:40;;;;;;;4.75;2.80;;;23.70;99.90;;;;;;1894810;75;21060;-74
2022/07/29 09:24:44;;;;;;;8.45;3.95;;;23.20;99.90;;;;;;1861184;75;21153;-75
2022/07/29 09:27:35;;;;;;;6.42;3.58;;;23.00;99.90;;;;;;1883813;75;21110;-83
2022/07/29 09:30:27;;;;;;;7.75;4.37;;;22.70;99.90;;;;;;1886894;73;21204;-74
2022/07/29 09:33:21;;;;;;;5.37;3.30;;;22.70;99.90;;;;;;1882357;73;21577;-72
2022/07/29 09:36:12;;;;;;;5.90;3.15;;;22.40;99.90;;;;;;1894133;75;21222;-73
2022/07/29 09:39:04;;;;;;;6.08;3.72;;;21.90;99.90;;;;;;1872350;77;21059;-90
2022/07/29 09:41:57;;;;;;;9.08;4.25;;;21.60;99.90;;;;;;1889914;75;21591;-84
2022/07/29 09:44:50;;;;;;;7.83;3.90;;;21.30;99.90;;;;;;1889785;75;21078;-86
2022/07/29 09:47:48;;;;;;;7.33;3.65;;;21.20;99.90;;;;;;1880667;75;21059;-86
2022/07/29 09:50:44;;;;;;;6.58;3.95;;;20.90;99.90;;;;;;1878126;74;21094;-86
2022/07/29 09:53:43;;;;;;;7.42;3.50;;;20.90;99.90;;;;;;1899823;74;21601;-71
2022/07/29 09:56:44;;;;;;;11.08;3.67;;;20.80;99.90;;;;;;1885433;75;21107;-72
2022/07/29 09:59:35;;;;;;;6.08;3.33;;;20.80;99.90;;;;;;1886875;75;21534;-72
2022/07/29 10:02:33;;;;;;;5.40;3.10;;;20.80;99.90;;;;;;1928647;74;21107;-72
2022/07/29 10:05:27;;;;;;;6.97;3.65;;;20.70;99.90;;;;;;1843055;77;21495;-75
2022/07/29 10:08:26;;;;;;;6.40;3.50;;;20.80;99.90;;;;;;1882186;75;21142;-75
2022/07/29 10:11:19;;;;;;;5.65;3.10;;;20.80;99.90;;;;;;1893040;75;21157;-73
2022/07/29 10:14:11;;;;;;;5.10;3.67;;;20.70;99.90;;;;;;1882078;75;21060;-77
2022/07/29 10:17:02;;;;;;;6.25;3.62;;;20.70;99.90;;;;;;1894320;75;21051;-76
2022/07/29 10:20:07;;;;;;;6.55;3.95;;;20.80;99.90;;;;;;1893435;75;21152;-77
2022/07/29 10:23:00;;;;;;;7.80;3.95;;;20.70;99.90;;;;;;1875771;75;21161;-76
2022/07/29 10:25:52;;;;;;;8.10;3.98;;;20.80;99.90;;;;;;1884150;75;21059;-76
2022/07/29 10:28:44;;;;;;;7.47;3.72;;;20.80;99.90;;;;;;1872233;77;21233;-74
2022/07/29 10:31:51;;;;;;;9.63;4.17;;;20.80;99.90;;;;;;1883728;75;21099;-78
2022/07/29 10:34:59;;;;;;;5.80;3.42;;;20.90;99.90;;;;;;1838063;77;21139;-87
2022/07/29 10:38:03;;;;;;;7.55;3.67;;;21.00;99.90;;;;;;1900532;75;21210;-87
2022/07/29 10:41:27;;;;;;;5.28;3.62;;;21.00;99.90;;;;;;1904081;75;21479;-86
2022/07/29 10:44:25;;;;;;;13.25;11.12;;;21.00;99.90;;;;;;1883396;74;21129;-74
2022/07/29 10:47:24;;;;;;;8.63;4.40;;;21.10;99.90;;;;;;1911546;74;21173;-80
2022/07/29 10:50:15;;;;;;;7.75;4.90;;;21.20;99.90;;;;;;1895447;75;21080;-90
2022/07/29 10:55:51;;;;;;;7.42;5.30;;;21.50;99.90;;;;;;1942134;72;22101;-82
2022/07/29 10:59:00;;;;;;;8.93;4.90;;;21.60;99.90;;;;;;1897543;74;21142;-85
2022/07/29 11:01:57;;;;;;;8.53;6.20;;;21.70;99.90;;;;;;1908179;73;21148;-84
2022/07/29 11:05:03;;;;;;;5.33;4.40;;;21.60;99.90;;;;;;1899817;75;21187;-86
2022/07/29 11:08:23;;;;;;;6.60;4.72;;;21.60;99.90;;;;;;1899324;75;21087;-85
2022/07/29 11:11:41;;;;;;;6.25;4.35;;;21.50;99.90;;;;;;1905374;75;21117;-85
2022/07/29 11:15:02;;;;;;;8.28;5.40;;;21.70;99.90;;;;;;1893824;73;21061;-85
2022/07/29 11:20:48;;;;;;;12.53;10.23;;;22.10;99.90;;;;;;1974601;72;22162;-84
2022/07/29 11:26:23;;;;;;;5.78;4.10;;;22.30;99.90;;;;;;1931279;72;22294;-86
2022/07/29 11:29:22;;;;;;;5.33;4.25;;;22.50;99.90;;;;;;1903465;74;21084;-78
2022/07/29 11:32:15;;;;;;;8.05;4.35;;;22.60;99.90;;;;;;1910249;75;22028;-75
2022/07/29 11:35:17;;;;;;;5.45;3.90;;;22.60;99.90;;;;;;1892173;74;21149;-83
2022/07/29 11:38:29;;;;;;;5.53;3.87;;;22.30;99.90;;;;;;1893014;75;21181;-73
2022/07/29 11:41:35;;;;;;;6.10;4.42;;;22.20;99.90;;;;;;1904193;75;21098;-73
2022/07/29 11:44:29;;;;;;;5.22;4.28;;;22.40;99.90;;;;;;1903229;74;21119;-79
2022/07/29 11:47:22;;;;;;;4.35;3.95;;;22.70;99.90;;;;;;1904750;73;21132;-73
2022/07/29 11:50:16;;;;;;;7.20;4.80;;;22.70;99.90;;;;;;1902639;73;21206;-73
2022/07/29 11:55:56;;;;;;;9.08;5.00;;;22.50;99.90;;;;;;1948537;72;22219;-73
2022/07/29 11:58:49;;;;;;;6.50;3.58;;;22.60;99.90;;;;;;1903190;75;21514;-73
2022/07/29 12:01:54;;;;;;;5.25;3.90;;;22.70;99.90;;;;;;1901792;74;21051;-73
2022/07/29 12:04:51;;;;;;;5.17;4.37;;;22.80;99.90;;;;;;1910154;74;21270;-73
2022/07/29 12:07:42;;;;;;;6.03;4.15;;;22.90;99.90;;;;;;1900983;74;21089;-73
2022/07/29 12:10:36;;;;;;;6.12;4.30;;;23.00;99.90;;;;;;1906943;74;21171;-73
2022/07/29 12:16:06;;;;;;;4.62;4.12;;;23.20;99.90;;;;;;1952703;72;22122;-74
2022/07/29 12:21:48;;;;;;;4.62;3.72;;;23.60;99.90;;;;;;1926731;72;22118;-73
2022/07/29 12:24:47;;;;;;;7.53;4.83;;;23.90;99.90;;;;;;1892802;75;21078;-73
2022/07/29 12:27:38;;;;;;;6.67;3.95;;;24.10;99.90;;;;;;1880556;75;21173;-73
2022/07/29 12:30:41;;;;;;;4.22;3.30;;;24.30;99.90;;;;;;1905064;75;21177;-73
2022/07/29 12:36:15;;;;;;;4.33;3.90;;;24.30;99.90;;;;;;1934244;72;22229;-72
2022/07/29 12:41:50;;;;;;;4.15;3.50;;;24.30;99.90;;;;;;1924528;72;22239;-72
2022/07/29 12:44:51;;;;;;;6.28;4.10;;;24.30;99.90;;;;;;1896897;73;21050;-74
2022/07/29 12:47:54;;;;;;;4.65;4.08;;;24.10;99.90;;;;;;1895311;73;21133;-74
2022/07/29 12:51:01;;;;;;;4.40;3.55;;;24.00;99.90;;;;;;1896085;73;21145;-74
2022/07/29 12:56:47;;;;;;;5.55;3.70;;;24.20;99.90;;;;;;1957037;72;22169;-72
2022/07/29 12:59:45;;;;;;;4.70;3.30;;;24.10;99.90;;;;;;1897541;75;21208;-80
2022/07/29 13:02:36;;;;;;;5.00;3.37;;;24.30;99.90;;;;;;1905789;75;21538;-76
2022/07/29 13:05:41;;;;;;;4.28;3.87;;;24.20;99.90;;;;;;1893257;73;21143;-74
2022/07/29 13:11:30;;;;;;;4.45;3.45;;;24.70;99.90;;;;;;1936228;72;22138;-74
2022/07/29 13:14:34;;;;;;;8.30;3.95;;;24.90;99.90;;;;;;1899878;73;21159;-75
2022/07/29 13:17:27;;;;;;;5.37;3.50;;;24.80;99.90;;;;;;1903409;73;21102;-75
2022/07/29 13:20:21;;;;;;;5.33;3.40;;;25.00;99.90;;;;;;1914987;75;21184;-78
2022/07/29 13:23:13;;;;;;;4.53;3.35;;;25.10;99.90;;;;;;1892789;73;21124;-74
2022/07/29 13:26:08;;;;;;;4.35;3.20;;;25.10;99.90;;;;;;1883992;73;21102;-74
2022/07/29 13:28:59;;;;;;;6.37;3.27;;;25.10;99.90;;;;;;1906565;75;21055;-75
2022/07/29 13:32:03;;;;;;;3.77;3.27;;;25.20;99.90;;;;;;1885553;75;21140;-74
2022/07/29 13:34:55;;;;;;;4.30;3.40;;;25.30;99.90;;;;;;1900864;75;21043;-74
2022/07/29 13:37:46;;;;;;;5.35;3.30;;;25.30;99.90;;;;;;1887619;75;21091;-74
2022/07/29 13:40:37;;;;;;;4.92;3.98;;;25.30;99.90;;;;;;1885623;75;21113;-74
2022/07/29 13:43:30;;;;;;;3.55;3.02;;;25.50;99.90;;;;;;1887149;75;21113;-75
2022/07/29 13:46:21;;;;;;;3.95;3.33;;;25.70;99.90;;;;;;1929979;73;21167;-75
2022/07/29 13:49:19;;;;;;;4.95;3.00;;;26.10;99.90;;;;;;1892505;75;21059;-75
2022/07/29 13:52:14;;;;;;;4.33;3.22;;;26.20;99.90;;;;;;1895839;73;21109;-75
2022/07/29 13:55:18;;;;;;;4.50;3.42;;;26.40;99.90;;;;;;1889866;75;21190;-75
2022/07/29 14:00:57;;;;;;;4.70;3.85;;;26.80;99.90;;;;;;1926394;72;22237;-74
2022/07/29 14:03:55;;;;;;;3.65;3.10;;;27.60;99.90;;;;;;1907754;75;21118;-75
2022/07/29 14:06:46;;;;;;;4.65;2.92;;;28.60;99.90;;;;;;1884495;75;21143;-75
2022/07/29 14:09:38;;;;;;;3.45;2.75;;;29.00;99.90;;;;;;1901478;75;21095;-75
2022/07/29 14:12:32;;;;;;;3.40;2.80;;;29.40;99.90;;;;;;1902233;75;21239;-75
2022/07/29 14:15:24;;;;;;;4.20;3.08;;;29.90;99.90;;;;;;1899804;74;21071;-75
2022/07/29 14:20:55;;;;;;;3.90;2.45;;;29.10;99.90;;;;;;1941225;72;22156;-75
2022/07/29 14:23:56;;;;;;;3.52;2.95;;;29.10;99.90;;;;;;1902093;75;21369;-75
2022/07/29 14:26:47;;;;;;;2.80;2.50;;;29.90;99.90;;;;;;1905243;74;21105;-75
2022/07/29 14:29:38;;;;;;;3.08;2.52;;;29.50;99.90;;;;;;1902964;75;21098;-75
2022/07/29 14:32:30;;;;;;;3.70;2.83;;;29.40;99.90;;;;;;1893291;75;21089;-72
2022/07/29 14:38:00;;;;;;;2.50;2.30;;;29.80;99.90;;;;;;1939841;72;22272;-77
2022/07/29 14:40:54;;;;;;;4.53;2.70;;;30.80;99.90;;;;;;1900636;75;21667;-77
2022/07/29 14:46:28;;;;;;;3.05;2.70;;;31.60;99.90;;;;;;1944157;72;22683;-83
2022/07/29 14:49:19;;;;;;;3.60;2.60;;;32.10;99.90;;;;;;1895010;75;21561;-83
2022/07/29 14:52:10;;;;;;;3.65;3.12;;;32.80;99.90;;;;;;1905617;73;21159;-83
2022/07/29 14:55:02;;;;;;;3.42;2.85;;;32.50;99.90;;;;;;1906429;73;21163;-83
2022/07/29 14:57:53;;;;;;;3.02;2.50;;;32.50;99.90;;;;;;1913972;73;21044;-82
2022/07/29 15:03:27;;;;;;;4.20;2.65;;;33.40;99.90;;;;;;1968387;72;22603;-83
2022/07/29 15:06:20;;;;;;;2.65;2.45;;;33.80;99.90;;;;;;1929741;72;21099;-82
2022/07/29 15:09:11;;;;;;;5.55;2.80;;;34.40;99.90;;;;;;1929783;73;21151;-82
2022/07/29 15:12:03;;;;;;;2.35;2.15;;;35.40;99.90;;;;;;1926341;73;21118;-82
2022/07/29 15:14:55;;;;;;;2.65;2.37;;;35.00;98.60;;;;;;1918298;73;21109;-82
2022/07/29 15:17:55;;;;;;;2.40;2.20;;;34.30;97.10;;;;;;1924314;73;21558;-82
2022/07/29 15:20:46;;;;;;;2.27;2.00;;;35.10;96.90;;;;;;1937891;73;21132;-81
2022/07/29 15:23:50;;;;;;;2.45;1.70;;;35.50;96.00;;;;;;1930503;73;21033;-82
2022/07/29 15:26:42;;;;;;;2.15;1.95;;;36.20;94.40;;;;;;1929296;73;21178;-81
2022/07/29 15:32:13;;;;;;;2.42;2.22;;;37.20;91.70;;;;;;1931453;72;22185;-81
2022/07/29 15:35:06;;;;;;;2.10;1.90;;;37.20;91.10;;;;;;1910242;75;21109;-81
2022/07/29 15:37:57;;;;;;;2.30;2.05;;;38.30;89.30;;;;;;1885426;75;21130;-80
2022/07/29 15:40:48;;;;;;;3.15;1.80;;;39.00;85.80;;;;;;1895019;75;21144;-80
2022/07/29 15:43:44;;;;;;;2.20;1.87;;;38.90;82.80;;;;;;1885390;75;21485;-80
2022/07/29 15:49:44;;;;;;;2.58;1.80;;;37.70;81.90;;;;;;1905521;75;21121;-79
2022/07/29 15:52:36;;;;;;;1.77;1.47;;;38.60;79.50;;;;;;1893432;73;21851;-79
2022/07/29 15:55:29;;;;;;;1.90;1.60;;;39.20;76.40;;;;;;1907238;73;21099;-77
2022/07/29 16:01:00;;;;;;;2.52;2.27;;;40.30;74.40;;;;;;1933251;72;22327;-76
2022/07/29 16:03:51;;;;;;;3.10;1.72;;;39.30;74.30;;;;;;1897815;75;21098;-76
2022/07/29 16:06:43;;;;;;;2.05;1.70;;;39.50;74.20;;;;;;1887310;75;21054;-78
2022/07/29 16:12:13;;;;;;;2.67;1.80;;;38.60;73.70;;;;;;1949594;72;22214;-79
2022/07/29 16:15:08;;;;;;;1.60;1.40;;;38.80;73.40;;;;;;1937807;73;21179;-76
2022/07/29 16:18:00;;;;;;;2.33;1.75;;;39.30;71.10;;;;;;1919666;73;21100;-78
2022/07/29 16:20:53;;;;;;;2.10;1.75;;;39.60;70.80;;;;;;1944745;73;21129;-76
2022/07/29 16:23:48;;;;;;;3.52;1.85;;;39.90;69.60;;;;;;1938894;73;21088;-76
2022/07/29 16:26:39;;;;;;;2.52;1.67;;;39.70;67.50;;;;;;1929279;73;21169;-76
2022/07/29 16:29:30;;;;;;;2.83;1.65;;;38.70;68.60;;;;;;1934923;73;21232;-76
2022/07/29 16:32:22;;;;;;;1.60;1.50;;;38.60;68.70;;;;;;1928634;73;21113;-77
2022/07/29 16:37:52;;;;;;;2.47;1.20;;;36.80;70.70;;;;;;1953473;72;22109;-75
2022/07/29 16:40:51;;;;;;;1.80;1.70;;;36.40;73.00;;;;;;1933661;73;21070;-76
2022/07/29 16:43:52;;;;;;;1.52;1.42;;;37.40;71.90;;;;;;1935452;73;21170;-76
2022/07/29 16:46:45;;;;;;;2.05;1.85;;;38.70;68.70;;;;;;1938848;73;21076;-75
2022/07/29 16:49:38;;;;;;;3.10;2.45;;;38.30;69.60;;;;;;1928194;73;21110;-76
2022/07/29 16:52:29;;;;;;;2.17;1.95;;;39.70;67.20;;;;;;1950653;73;21104;-76
2022/07/29 16:55:21;;;;;;;3.55;2.00;;;40.30;65.20;;;;;;1877968;75;21119;-76
2022/07/29 17:00:55;;;;;;;3.05;1.80;;;39.70;64.00;;;;;;1920072;72;22200;-74
2022/07/29 17:06:31;;;;;;;2.20;1.65;;;36.50;67.80;;;;;;1939200;72;22641;-74
2022/07/29 17:09:22;;;;;;;1.20;1.10;;;35.70;69.40;;;;;;1899240;75;21062;-75
2022/07/29 17:12:13;;;;;;;1.50;1.35;;;35.10;70.00;;;;;;1892725;75;21156;-75
2022/07/29 17:15:05;;;;;;;2.20;1.17;;;35.20;70.60;;;;;;1899786;75;21146;-75
2022/07/29 17:17:57;;;;;;;2.37;1.30;;;37.00;69.10;;;;;;1897191;75;21577;-75
2022/07/29 17:20:49;;;;;;;3.83;1.55;;;37.80;67.10;;;;;;1895680;75;21142;-75
2022/07/29 17:23:40;;;;;;;3.35;1.80;;;37.70;67.70;;;;;;1912551;75;21623;-74